createdAt,value
2019-02-19T00:02:41.671Z,5.68
2019-02-19T00:05:29.635Z,5.69
2019-02-19T00:08:17.891Z,5.67
2019-02-19T00:11:05.711Z,5.92
2019-02-19T00:13:53.739Z,5.67
2019-02-19T00:16:41.590Z,5.78
2019-02-19T00:19:29.507Z,5.76
2019-02-19T00:22:17.551Z,5.58
2019-02-19T00:25:05.505Z,5.48
2019-02-19T00:27:53.859Z,5.60
2019-02-19T00:30:41.491Z,5.57
2019-02-19T00:33:29.640Z,5.62
2019-02-19T00:36:17.319Z,5.69
2019-02-19T00:39:06.043Z,5.71
2019-02-19T00:41:54.005Z,5.61
2019-02-19T00:44:41.998Z,5.72
2019-02-19T00:47:30.109Z,5.58
2019-02-19T00:50:18.443Z,5.63
2019-02-19T00:53:06.411Z,5.74
2019-02-19T00:55:54.415Z,5.52
2019-02-19T00:58:42.238Z,5.60
2019-02-19T01:01:30.059Z,5.65
2019-02-19T01:04:17.793Z,5.45
2019-02-19T01:07:05.851Z,5.23
2019-02-19T01:09:54.036Z,5.20
2019-02-19T01:12:41.646Z,5.23
2019-02-19T01:15:29.701Z,5.22
2019-02-19T01:18:17.793Z,5.32
2019-02-19T01:21:05.833Z,5.26
2019-02-19T01:23:53.829Z,5.24
2019-02-19T01:26:41.903Z,5.37
2019-02-19T01:29:29.872Z,5.36
2019-02-19T01:32:17.736Z,5.32
2019-02-19T01:35:05.728Z,5.33
2019-02-19T01:37:53.649Z,5.16
2019-02-19T01:40:42.140Z,5.28
2019-02-19T01:43:29.938Z,5.29
2019-02-19T01:46:17.527Z,5.36
2019-02-19T01:49:05.482Z,5.37
2019-02-19T01:51:53.429Z,5.44
2019-02-19T01:54:41.725Z,5.41
2019-02-19T01:57:29.327Z,5.46
2019-02-19T02:00:17.177Z,5.46
2019-02-19T02:03:05.566Z,5.67
2019-02-19T02:05:53.345Z,5.58
2019-02-19T02:08:41.034Z,5.56
2019-02-19T02:11:28.701Z,5.61
2019-02-19T02:14:16.764Z,5.57
2019-02-19T02:17:04.568Z,5.46
2019-02-19T02:19:52.180Z,5.44
2019-02-19T02:22:40.511Z,5.41
2019-02-19T02:25:28.260Z,5.37
2019-02-19T02:28:16.010Z,5.68
2019-02-19T02:31:03.938Z,5.47
2019-02-19T02:33:51.886Z,5.39
2019-02-19T02:36:39.758Z,5.31
2019-02-19T02:39:27.643Z,5.39
2019-02-19T02:42:15.258Z,5.38
2019-02-19T02:45:03.492Z,5.49
2019-02-19T02:47:51.230Z,5.45
2019-02-19T02:50:39.447Z,5.23
2019-02-19T02:53:27.688Z,5.14
2019-02-19T02:56:15.393Z,5.08
2019-02-19T02:59:03.535Z,5.03
2019-02-19T03:01:51.673Z,4.88
2019-02-19T03:04:39.864Z,4.86
2019-02-19T03:07:40.079Z,5.25
2019-02-19T03:10:27.921Z,5.08
2019-02-19T03:13:15.864Z,4.91
2019-02-19T03:16:03.737Z,4.88
2019-02-19T03:18:51.974Z,4.80
2019-02-19T03:21:40.059Z,5.09
2019-02-19T03:24:27.904Z,4.91
2019-02-19T03:27:15.431Z,4.74
2019-02-19T03:30:03.790Z,4.73
2019-02-19T03:32:51.723Z,4.79
2019-02-19T03:35:39.688Z,4.82
2019-02-19T03:38:27.884Z,4.95
2019-02-19T03:41:16.064Z,5.13
2019-02-19T03:44:04.296Z,5.00
2019-02-19T03:46:52.360Z,5.02
2019-02-19T03:49:40.153Z,5.00
2019-02-19T03:52:27.748Z,5.02
2019-02-19T03:55:15.752Z,5.15
2019-02-19T03:58:03.882Z,4.89
2019-02-19T04:00:52.133Z,5.20
2019-02-19T04:03:39.737Z,5.31
2019-02-19T04:06:27.795Z,5.26
2019-02-19T04:09:15.677Z,5.21
2019-02-19T04:12:03.237Z,5.28
2019-02-19T04:14:51.594Z,5.16
2019-02-19T04:17:39.722Z,5.22
2019-02-19T04:20:27.823Z,5.14
2019-02-19T04:23:15.906Z,4.90
2019-02-19T04:26:03.817Z,4.92
2019-02-19T04:28:51.793Z,4.87
2019-02-19T04:31:39.442Z,4.79
2019-02-19T04:34:27.408Z,4.47
2019-02-19T04:37:15.612Z,4.27
2019-02-19T04:40:03.674Z,4.15
2019-02-19T04:42:51.719Z,4.02
2019-02-19T04:45:39.974Z,4.15
2019-02-19T04:48:28.183Z,4.01
2019-02-19T04:51:16.136Z,3.78
2019-02-19T04:54:04.016Z,3.80
2019-02-19T04:56:52.130Z,3.58
2019-02-19T04:59:40.023Z,3.51
2019-02-19T05:02:28.418Z,3.48
2019-02-19T05:05:16.417Z,3.35
2019-02-19T05:08:04.634Z,3.37
2019-02-19T05:10:52.542Z,3.31
2019-02-19T05:13:40.819Z,3.18
2019-02-19T05:16:28.901Z,3.21
2019-02-19T05:19:16.865Z,3.27
2019-02-19T05:22:04.497Z,3.15
2019-02-19T05:24:52.253Z,3.29
2019-02-19T05:27:40.414Z,3.25
2019-02-19T05:30:28.241Z,3.15
2019-02-19T05:33:16.546Z,2.98
2019-02-19T05:36:04.925Z,2.79
2019-02-19T05:38:53.129Z,2.90
2019-02-19T05:41:41.059Z,2.95
2019-02-19T05:44:29.266Z,2.88
2019-02-19T05:47:17.456Z,2.72
2019-02-19T05:50:05.875Z,2.70
2019-02-19T05:52:53.473Z,2.45
2019-02-19T05:55:41.632Z,2.39
2019-02-19T05:58:29.602Z,2.57
2019-02-19T06:01:17.636Z,2.53
2019-02-19T06:04:05.227Z,2.45
2019-02-19T06:06:53.348Z,2.76
2019-02-19T06:09:41.628Z,2.54
2019-02-19T06:12:29.790Z,2.56
2019-02-19T06:15:17.646Z,2.37
2019-02-19T06:18:05.536Z,2.39
2019-02-19T06:20:53.851Z,2.50
2019-02-19T06:23:41.746Z,2.32
2019-02-19T06:26:30.006Z,2.62
2019-02-19T06:29:17.713Z,2.82
2019-02-19T06:32:05.578Z,2.75
2019-02-19T06:34:53.671Z,2.69
2019-02-19T06:37:41.943Z,2.78
2019-02-19T06:40:30.349Z,2.83
2019-02-19T06:43:18.655Z,2.89
2019-02-19T06:46:06.302Z,3.01
2019-02-19T06:48:54.174Z,3.09
2019-02-19T06:51:41.786Z,3.21
2019-02-19T06:54:29.678Z,3.37
2019-02-19T06:57:17.604Z,3.40
2019-02-19T07:00:06.071Z,3.44
2019-02-19T07:03:20.712Z,3.37
2019-02-19T07:06:08.240Z,3.55
2019-02-19T07:08:56.277Z,3.54
2019-02-19T07:11:44.227Z,3.55
2019-02-19T07:14:32.469Z,3.72
2019-02-19T07:17:20.002Z,3.90
2019-02-19T07:20:07.624Z,3.91
2019-02-19T07:22:55.941Z,3.98
2019-02-19T07:25:43.910Z,4.09
2019-02-19T07:28:31.673Z,4.45
2019-02-19T07:31:19.591Z,5.19
2019-02-19T07:34:07.263Z,6.07
2019-02-19T07:36:55.539Z,6.74
2019-02-19T07:39:43.323Z,7.43
2019-02-19T07:42:30.875Z,8.18
2019-02-19T07:45:18.823Z,8.07
2019-02-19T07:48:06.651Z,8.32
2019-02-19T07:50:54.456Z,8.40
2019-02-19T07:53:42.259Z,8.61
2019-02-19T07:56:30.149Z,8.82
2019-02-19T07:59:18.446Z,8.69
2019-02-19T08:02:06.612Z,8.98
2019-02-19T08:04:54.574Z,8.71
2019-02-19T08:07:42.631Z,8.98
2019-02-19T08:10:30.757Z,9.11
2019-02-19T08:13:18.895Z,8.81
2019-02-19T08:16:06.669Z,8.98
2019-02-19T08:18:54.585Z,9.31
2019-02-19T08:21:42.440Z,9.22
2019-02-19T08:24:30.335Z,9.25
2019-02-19T08:27:18.601Z,9.17
2019-02-19T08:30:06.950Z,8.94
2019-02-19T08:32:54.728Z,9.15
2019-02-19T08:35:42.500Z,9.38
2019-02-19T08:38:30.364Z,9.24
2019-02-19T08:41:18.274Z,9.27
2019-02-19T08:44:08.401Z,9.36
2019-02-19T08:46:56.032Z,9.51
2019-02-19T08:49:43.681Z,9.66
2019-02-19T08:52:31.608Z,9.68
2019-02-19T08:55:19.225Z,9.78
2019-02-19T08:58:07.339Z,9.68
2019-02-19T09:00:55.263Z,9.72
2019-02-19T09:03:43.454Z,9.40
2019-02-19T09:06:31.675Z,9.68
2019-02-19T09:09:19.698Z,9.79
2019-02-19T09:12:07.666Z,9.65
2019-02-19T09:14:55.775Z,9.78
2019-02-19T09:17:51.684Z,10.04
2019-02-19T09:20:33.430Z,9.96
2019-02-19T09:23:21.391Z,9.89
2019-02-19T09:26:09.559Z,9.92
2019-02-19T09:28:57.554Z,9.89
2019-02-19T09:34:19.639Z,9.99
2019-02-19T09:37:08.001Z,10.03
2019-02-19T09:39:56.286Z,10.11
2019-02-19T09:42:44.406Z,10.09
2019-02-19T09:45:32.346Z,10.01
2019-02-19T09:48:20.646Z,10.12
2019-02-19T09:51:08.539Z,10.12
2019-02-19T09:53:56.661Z,9.57
2019-02-19T09:56:44.563Z,9.41
2019-02-19T09:59:32.805Z,9.68
2019-02-19T10:02:21.316Z,9.80
2019-02-19T10:05:10.461Z,9.86
2019-02-19T10:07:58.847Z,10.14
2019-02-19T10:10:46.780Z,10.25
2019-02-19T10:13:34.788Z,10.41
2019-02-19T10:16:22.584Z,10.29
2019-02-19T10:19:10.719Z,10.46
2019-02-19T10:21:58.350Z,10.51
2019-02-19T10:24:46.350Z,10.56
2019-02-19T10:27:34.471Z,10.52
2019-02-19T10:30:22.367Z,10.46
2019-02-19T10:33:10.630Z,10.73
2019-02-19T10:35:58.709Z,10.86
2019-02-19T10:38:46.811Z,10.91
2019-02-19T10:41:34.788Z,11.13
2019-02-19T10:44:22.370Z,10.98
2019-02-19T10:47:10.458Z,11.18
2019-02-19T10:49:58.706Z,11.24
2019-02-19T10:52:46.516Z,11.22
2019-02-19T10:55:34.470Z,11.17
2019-02-19T10:58:23.346Z,11.26
2019-02-19T11:01:11.541Z,10.93
2019-02-19T11:03:59.737Z,10.96
2019-02-19T11:06:47.993Z,11.13
2019-02-19T11:09:36.439Z,11.18
2019-02-19T11:12:24.782Z,11.40
2019-02-19T11:15:12.920Z,11.53
2019-02-19T11:18:00.472Z,11.64
2019-02-19T11:20:48.662Z,11.53
2019-02-19T11:23:36.863Z,11.49
2019-02-19T11:26:24.836Z,11.67
2019-02-19T11:29:12.975Z,11.72
2019-02-19T11:32:01.136Z,11.67
2019-02-19T11:34:49.643Z,11.76
2019-02-19T11:37:37.587Z,11.55
2019-02-19T11:40:25.846Z,11.81
2019-02-19T11:43:13.852Z,11.83
2019-02-19T11:46:01.905Z,11.80
2019-02-19T11:48:49.729Z,11.93
2019-02-19T11:51:37.871Z,11.92
2019-02-19T11:54:25.437Z,11.85
2019-02-19T11:57:13.825Z,12.03
2019-02-19T12:00:01.882Z,12.06
2019-02-19T12:02:50.151Z,12.16
2019-02-19T12:05:38.195Z,12.23
2019-02-19T12:08:26.179Z,12.13
2019-02-19T12:11:14.623Z,12.00
2019-02-19T12:14:02.897Z,12.16
2019-02-19T12:16:50.381Z,12.29
2019-02-19T12:19:38.597Z,12.25
2019-02-19T12:22:26.563Z,12.21
2019-02-19T12:25:14.799Z,12.33
2019-02-19T12:28:02.928Z,12.40
2019-02-19T12:30:50.537Z,12.46
2019-02-19T13:06:36.698Z,12.18
2019-02-19T14:27:10.997Z,12.49
2019-02-19T14:30:16.998Z,12.52
2019-02-19T14:33:33.231Z,12.62
2019-02-19T14:57:48.992Z,13.19
2019-02-19T15:00:55.747Z,13.12
2019-02-19T15:04:11.494Z,13.13
2019-02-19T15:07:23.941Z,13.11
2019-02-19T15:10:36.353Z,13.07
2019-02-19T15:13:37.927Z,12.95
2019-02-19T15:16:50.755Z,12.93
2019-02-19T15:19:53.447Z,12.95
2019-02-19T15:23:02.794Z,12.78
2019-02-19T15:26:08.799Z,12.90
2019-02-19T15:29:18.630Z,12.86
2019-02-19T15:32:17.022Z,12.96
2019-02-19T15:35:24.962Z,12.93
2019-02-19T15:38:34.868Z,12.74
2019-02-19T15:41:41.647Z,12.83
2019-02-19T15:44:54.055Z,12.78
2019-02-19T15:48:06.563Z,12.76
2019-02-19T15:51:25.915Z,12.71
2019-02-19T15:54:32.576Z,12.63
2019-02-19T15:57:39.446Z,12.46
2019-02-19T16:01:04.868Z,12.34
2019-02-19T16:03:58.564Z,12.29
2019-02-19T16:07:08.470Z,12.08
2019-02-19T16:10:01.667Z,11.92
2019-02-19T16:13:12.051Z,11.90
2019-02-19T16:16:37.389Z,11.84
2019-02-19T16:19:43.828Z,11.73
2019-02-19T16:22:38.624Z,11.74
2019-02-19T16:25:57.364Z,11.72
2019-02-19T16:29:08.673Z,11.75
2019-02-19T16:32:18.500Z,11.73
2019-02-19T16:35:34.706Z,11.60
2019-02-19T16:38:40.020Z,11.43
2019-02-19T16:42:02.295Z,11.32
2019-02-19T16:45:02.319Z,11.20
2019-02-19T16:48:24.381Z,11.04
2019-02-19T16:51:30.842Z,10.85
2019-02-19T16:54:37.699Z,10.77
2019-02-19T16:57:36.720Z,10.58
2019-02-19T17:00:55.268Z,10.32
2019-02-19T17:04:03.452Z,10.31
2019-02-19T17:07:13.403Z,10.11
2019-02-19T17:10:25.954Z,10.04
2019-02-19T17:13:38.436Z,9.88
2019-02-19T17:16:45.082Z,9.74
2019-02-19T17:19:55.046Z,9.68
2019-02-19T17:23:00.810Z,9.58
2019-02-19T17:26:07.844Z,9.53
2019-02-19T17:29:03.633Z,9.50
2019-02-19T17:32:02.778Z,9.48
2019-02-19T17:35:01.225Z,9.53
2019-02-19T17:38:17.341Z,9.57
2019-02-19T17:41:17.187Z,9.48
2019-02-19T17:44:10.767Z,9.54
2019-02-19T17:47:23.364Z,9.62
2019-02-19T17:50:28.473Z,9.76
2019-02-19T17:53:47.212Z,9.83
2019-02-19T17:57:05.705Z,9.67
2019-02-19T18:00:11.239Z,9.43
2019-02-19T18:03:11.567Z,9.23
2019-02-19T18:06:10.737Z,9.23
2019-02-19T18:09:17.634Z,9.20
2019-02-19T18:12:23.659Z,9.34
2019-02-19T18:15:36.599Z,9.32
2019-02-19T18:18:49.152Z,9.39
2019-02-19T18:21:37.349Z,9.18
2019-02-19T18:24:25.576Z,8.97
2019-02-19T18:27:13.874Z,8.97
2019-02-19T18:30:01.901Z,9.03
2019-02-19T18:32:49.976Z,8.88
2019-02-19T18:35:37.818Z,8.89
2019-02-19T18:38:26.078Z,8.79
2019-02-19T18:41:14.118Z,8.69
2019-02-19T18:44:02.231Z,8.76
2019-02-19T18:46:50.345Z,8.73
2019-02-19T18:49:38.487Z,8.73
2019-02-19T18:52:26.160Z,8.71
2019-02-19T18:55:14.234Z,8.64
2019-02-19T18:58:02.083Z,8.55
2019-02-19T19:00:50.348Z,8.73
2019-02-19T19:03:38.585Z,8.80
2019-02-19T19:06:26.940Z,8.81
2019-02-19T19:09:14.738Z,8.68
2019-02-19T19:12:02.598Z,8.62
2019-02-19T19:14:50.397Z,8.46
2019-02-19T19:17:38.442Z,8.26
2019-02-19T19:20:26.818Z,8.35
2019-02-19T19:23:14.816Z,8.56
2019-02-19T19:26:02.912Z,8.56
2019-02-19T19:28:50.930Z,8.29
2019-02-19T19:31:39.052Z,8.15
2019-02-19T19:34:26.986Z,7.87
2019-02-19T19:37:15.339Z,7.76
2019-02-19T19:40:03.234Z,7.63
2019-02-19T19:42:51.115Z,7.56
2019-02-19T19:45:39.043Z,7.53
2019-02-19T19:48:27.013Z,7.53
2019-02-19T19:51:17.307Z,7.56
2019-02-19T19:54:04.480Z,7.52
2019-02-19T19:56:52.666Z,7.58
2019-02-19T19:59:40.728Z,7.71
2019-02-19T20:02:28.936Z,7.80
2019-02-19T20:05:17.146Z,7.70
2019-02-19T20:08:04.962Z,7.69
2019-02-19T20:10:53.293Z,7.64
2019-02-19T20:13:41.338Z,7.73
2019-02-19T20:16:29.382Z,7.73
2019-02-19T20:19:17.213Z,7.66
2019-02-19T20:22:05.072Z,7.55
2019-02-19T20:24:53.123Z,7.53
2019-02-19T20:27:41.274Z,7.51
2019-02-19T20:30:29.265Z,7.51
2019-02-19T20:33:17.444Z,7.44
2019-02-19T20:36:05.643Z,7.33
2019-02-19T20:38:53.895Z,7.38
2019-02-19T20:41:41.732Z,7.42
2019-02-19T20:44:29.695Z,7.58
2019-02-19T20:47:17.662Z,7.43
2019-02-19T20:50:06.207Z,7.38
2019-02-19T20:52:54.395Z,7.35
2019-02-19T20:55:42.645Z,7.24
2019-02-19T20:58:30.651Z,7.14
2019-02-19T21:01:18.903Z,7.14
2019-02-19T21:04:06.902Z,7.18
2019-02-19T21:06:55.025Z,7.14
2019-02-19T21:09:44.090Z,7.33
2019-02-19T21:12:31.975Z,7.26
2019-02-19T21:15:20.266Z,6.99
2019-02-19T21:18:08.164Z,6.78
2019-02-19T21:20:56.337Z,6.78
2019-02-19T21:23:44.676Z,6.73
2019-02-19T21:26:32.634Z,6.69
2019-02-19T21:29:20.604Z,6.55
2019-02-19T21:32:08.620Z,6.48
2019-02-19T21:34:57.047Z,6.61
2019-02-19T21:37:45.191Z,6.56
2019-02-19T21:40:33.247Z,6.52
2019-02-19T21:43:21.056Z,6.42
2019-02-19T21:46:09.374Z,6.46
2019-02-19T21:48:57.499Z,6.35
2019-02-19T21:51:53.715Z,6.33
2019-02-19T21:54:35.123Z,6.39
2019-02-19T21:57:23.103Z,6.48
2019-02-19T22:00:13.227Z,6.59
2019-02-19T22:03:01.189Z,6.70
2019-02-19T22:05:49.343Z,6.73
2019-02-19T22:08:37.142Z,6.63
2019-02-19T22:11:25.108Z,6.73
2019-02-19T22:14:13.091Z,6.67
2019-02-19T22:17:01.281Z,6.71
2019-02-19T22:19:48.913Z,6.60
2019-02-19T22:22:36.857Z,6.58
2019-02-19T22:25:24.786Z,6.58
2019-02-19T22:28:12.965Z,6.49
2019-02-19T22:31:00.864Z,6.42
2019-02-19T22:33:49.089Z,6.49
2019-02-19T22:36:36.855Z,6.57
2019-02-19T22:39:24.940Z,6.44
2019-02-19T22:42:12.712Z,6.47
2019-02-19T22:45:00.677Z,6.68
2019-02-19T22:47:53.399Z,6.71
2019-02-19T22:50:37.705Z,6.62
2019-02-19T22:53:43.532Z,6.47
2019-02-19T22:56:37.763Z,6.50
2019-02-19T22:59:25.736Z,6.51
2019-02-19T23:02:16.982Z,6.54
2019-02-19T23:05:06.077Z,6.42
2019-02-19T23:07:54.558Z,6.48
2019-02-19T23:10:42.907Z,6.59
2019-02-19T23:13:30.840Z,6.49
2019-02-19T23:16:19.129Z,6.60
2019-02-19T23:19:07.124Z,6.44
2019-02-19T23:21:55.346Z,6.41
2019-02-19T23:24:43.413Z,6.38
2019-02-19T23:27:31.302Z,6.38
2019-02-19T23:30:19.405Z,6.17
2019-02-19T23:33:07.557Z,6.40
2019-02-19T23:36:08.386Z,6.38
2019-02-19T23:38:56.629Z,6.34
2019-02-19T23:41:44.723Z,6.27
2019-02-19T23:44:32.551Z,6.33
2019-02-19T23:47:20.855Z,6.45
2019-02-19T23:50:09.095Z,6.38
2019-02-19T23:52:57.639Z,6.27
2019-02-19T23:55:45.991Z,6.05
2019-02-19T23:58:34.098Z,5.81
